Portada
METAR-TAF:

METAR-TAF

Aeroports :

Weno, Micronèsia

latitud: 07-28N, longitud: 151-51E, altitud: 3 m

Observació

L'informe es va fer fa 1 hora i 11 minuts, a les 17:51 UTC
Vent 12 kt del Oest
Temperatura 28°C
Humitat 84%
Pressió 1007 hPa
Visibilitat: 22.5 km
Núvols disperses a una alçada de 1200 ft, Cumulonimbus.
Cel ennuvolat a una alçada de 12000 ft
Cel cobert a una alçada de 28000 ft

METAR: PTKK 231751Z 27012KT 14SM SCT012CB BKN120 OVC280 28/25 A2973 RMK CB ALQDS MOV E SLP071 8/371 T02760247 10283 20265 57003

Hora: 05:02 (19:02 UTC)

Pronòstic

L'informe es va fer fa 1 hora i 32 minuts, a les 17:30 UTC
Pronòstic vàlid del 23 a les 18 UTC al 24 a les 18 UTC
Vent 11 kt del Oest
Visibilitat: 10 km
Núvols disperses a una alçada de 1400 ft
Núvols disperses a una alçada de 3000 ft
Cel ennuvolat a una alçada de 12000 ft
xàfecs en les proximitats

TAF: PTKK 231730Z 2318/2418 27011KT P6SM VCSH SCT014 SCT030 BKN120

Observacions i pronòstics meteorològics de més de 4000 aeroports (METAR i TAF).

Les estacions disponibles són els punts grocs i vermells al mapa.

Posi el ratolí al punt desitjat per veure el nom de l'estació.

Feu clic per veure les observacions i els pronòstics meteorològics.

Per canviar el mapa: feu clic els botons verds amb una creu de color negre per apropar; al botó verd amb un guió per allunyar la imatge; o en les fletxes verdes per a mapes adjacents.


METAR-TAF: